createdAt,value
2017-06-16T00:00:07.704Z,6.70
2017-06-16T00:02:35.272Z,6.30
2017-06-16T00:05:02.792Z,6.50
2017-06-16T00:07:30.339Z,6.03
2017-06-16T00:09:58.313Z,6.47
2017-06-16T00:12:25.820Z,5.63
2017-06-16T00:14:54.168Z,5.93
2017-06-16T00:17:21.736Z,7.17
2017-06-16T00:19:49.288Z,6.13
2017-06-16T00:22:16.826Z,7.47
2017-06-16T00:24:44.716Z,6.83
2017-06-16T00:27:12.273Z,7.53
2017-06-16T00:29:39.804Z,7.43
2017-06-16T00:32:07.379Z,6.50
2017-06-16T00:34:34.900Z,7.43
2017-06-16T00:37:02.430Z,6.90
2017-06-16T00:39:30.247Z,7.47
2017-06-16T00:41:57.795Z,7.23
2017-06-16T00:44:25.373Z,7.93
2017-06-16T00:46:52.964Z,7.70
2017-06-16T00:49:21.177Z,7.40
2017-06-16T00:51:48.714Z,7.57
2017-06-16T00:54:16.288Z,8.10
2017-06-16T00:56:43.821Z,7.80
2017-06-16T00:59:11.351Z,8.20
2017-06-16T01:01:38.925Z,7.03
2017-06-16T01:04:06.471Z,8.37
2017-06-16T01:06:34.004Z,7.47
2017-06-16T01:09:01.584Z,8.00
2017-06-16T01:11:29.116Z,8.50
2017-06-16T01:13:56.657Z,8.40
2017-06-16T01:16:24.228Z,7.33
2017-06-16T01:18:51.761Z,7.63
2017-06-16T01:21:19.281Z,7.60
2017-06-16T01:23:47.182Z,7.97
2017-06-16T01:26:14.709Z,7.87
2017-06-16T01:28:42.232Z,7.30
2017-06-16T01:31:09.856Z,7.43
2017-06-16T01:33:37.390Z,9.10
2017-06-16T01:36:04.937Z,8.93
2017-06-16T01:38:33.270Z,8.03
2017-06-16T01:41:00.792Z,8.00
2017-06-16T01:43:28.346Z,7.73
2017-06-16T01:45:56.253Z,7.97
2017-06-16T01:48:23.797Z,8.17
2017-06-16T01:50:51.333Z,7.50
2017-06-16T01:53:18.919Z,8.00
2017-06-16T01:55:46.448Z,8.57
2017-06-16T01:58:13.989Z,8.93
2017-06-16T02:00:41.561Z,9.20
2017-06-16T02:03:09.877Z,8.30
2017-06-16T02:05:37.413Z,9.27
2017-06-16T02:08:04.991Z,9.37
2017-06-16T02:10:32.544Z,10.37
2017-06-16T02:13:00.076Z,8.70
2017-06-16T02:15:27.662Z,10.07
2017-06-16T02:17:55.201Z,8.93
2017-06-16T02:20:23.517Z,9.67
2017-06-16T02:22:51.105Z,8.73
2017-06-16T02:25:18.643Z,9.20
2017-06-16T02:27:46.188Z,9.47
2017-06-16T02:30:13.776Z,9.03
2017-06-16T02:32:41.347Z,9.17
2017-06-16T02:35:08.983Z,8.90
2017-06-16T02:37:36.555Z,10.80
2017-06-16T02:40:04.080Z,10.27
2017-06-16T02:42:31.629Z,10.43
2017-06-16T02:44:59.548Z,10.33
2017-06-16T02:47:27.084Z,9.27
2017-06-16T02:49:54.640Z,10.63
2017-06-16T02:52:22.225Z,10.33
2017-06-16T02:54:49.904Z,10.30
2017-06-16T02:57:17.428Z,9.87
2017-06-16T02:59:45.004Z,11.03
2017-06-16T03:02:12.540Z,10.80
2017-06-16T03:04:40.075Z,10.80
2017-06-16T03:07:07.913Z,10.87
2017-06-16T03:09:35.489Z,11.40
2017-06-16T03:12:03.014Z,12.47
2017-06-16T03:14:30.616Z,12.23
2017-06-16T03:16:58.154Z,11.80
2017-06-16T03:19:25.692Z,11.40
2017-06-16T03:21:53.292Z,10.70
2017-06-16T03:24:26.593Z,11.73
2017-06-16T03:26:54.172Z,11.50
2017-06-16T03:29:22.488Z,11.13
2017-06-16T03:31:50.016Z,11.00
2017-06-16T03:34:18.387Z,11.77
2017-06-16T03:36:45.925Z,10.40
2017-06-16T03:39:13.461Z,10.67
2017-06-16T03:41:41.331Z,10.87
2017-06-16T03:44:08.862Z,11.70
2017-06-16T03:46:36.416Z,10.70
2017-06-16T03:49:04.030Z,11.53
2017-06-16T03:51:31.568Z,10.63
2017-06-16T03:53:59.119Z,11.57
2017-06-16T03:56:26.691Z,10.57
2017-06-16T03:58:54.227Z,12.53
2017-06-16T04:01:21.755Z,11.27
2017-06-16T04:03:49.332Z,11.77
2017-06-16T04:06:16.875Z,11.00
2017-06-16T04:08:45.179Z,11.90
2017-06-16T04:11:12.743Z,10.63
2017-06-16T04:13:40.296Z,11.60
2017-06-16T04:16:07.821Z,10.97
2017-06-16T04:18:35.420Z,12.20
2017-06-16T04:21:02.974Z,11.80
2017-06-16T04:23:30.504Z,12.23
2017-06-16T04:25:58.078Z,12.00
2017-06-16T04:28:25.617Z,11.93
2017-06-16T04:30:53.193Z,12.30
2017-06-16T04:33:20.783Z,11.30
2017-06-16T04:35:48.328Z,12.30
2017-06-16T04:38:15.867Z,11.50
2017-06-16T04:40:43.454Z,12.37
2017-06-16T04:43:10.985Z,12.33
2017-06-16T04:45:38.512Z,12.37
2017-06-16T04:48:06.086Z,12.83
2017-06-16T04:50:33.641Z,12.67
2017-06-16T04:53:01.194Z,11.93
2017-06-16T04:55:28.770Z,12.60
2017-06-16T04:57:56.292Z,12.97
2017-06-16T05:00:23.824Z,12.20
2017-06-16T05:02:51.403Z,12.23
2017-06-16T05:05:19.828Z,12.50
2017-06-16T05:07:47.368Z,12.27
2017-06-16T05:10:14.965Z,11.70
2017-06-16T05:12:42.502Z,11.03
2017-06-16T05:15:10.049Z,11.13
2017-06-16T05:17:37.627Z,12.23
2017-06-16T05:20:05.171Z,11.77
2017-06-16T05:22:38.470Z,11.33
2017-06-16T05:25:06.031Z,12.97
2017-06-16T05:27:34.186Z,12.77
2017-06-16T05:30:01.762Z,13.90
2017-06-16T05:32:29.318Z,12.83
2017-06-16T05:34:56.864Z,14.13
2017-06-16T05:37:24.449Z,13.13
2017-06-16T05:39:51.980Z,13.10
2017-06-16T05:42:19.535Z,14.83
2017-06-16T05:44:47.113Z,14.90
2017-06-16T05:47:14.669Z,12.90
2017-06-16T05:49:42.214Z,15.87
2017-06-16T05:52:09.816Z,14.03
2017-06-16T05:54:37.332Z,15.67
2017-06-16T05:57:04.873Z,15.33
2017-06-16T05:59:33.222Z,15.97
2017-06-16T06:02:00.761Z,15.10
2017-06-16T06:04:28.320Z,15.50
2017-06-16T06:06:55.918Z,14.70
2017-06-16T06:09:24.232Z,15.50
2017-06-16T06:11:51.792Z,16.30
2017-06-16T06:14:19.383Z,16.30
2017-06-16T06:16:46.916Z,16.30
2017-06-16T06:19:14.439Z,16.03
2017-06-16T06:21:42.418Z,16.83
2017-06-16T06:24:10.748Z,15.80
2017-06-16T06:26:38.275Z,16.20
2017-06-16T06:29:05.853Z,16.13
2017-06-16T06:31:33.419Z,14.50
2017-06-16T06:34:00.980Z,15.20
2017-06-16T06:36:28.981Z,15.43
2017-06-16T06:38:57.224Z,14.90
2017-06-16T06:41:24.754Z,15.37
2017-06-16T06:43:52.628Z,15.53
2017-06-16T06:46:20.939Z,14.90
2017-06-16T06:48:48.485Z,15.77
2017-06-16T06:51:16.092Z,14.77
2017-06-16T06:53:43.614Z,15.60
2017-06-16T06:56:11.145Z,15.43
2017-06-16T06:58:39.499Z,12.73
2017-06-16T07:01:07.025Z,13.70
2017-06-16T07:03:34.560Z,12.33
2017-06-16T07:06:02.120Z,12.17
2017-06-16T07:08:29.670Z,13.57
2017-06-16T07:10:57.213Z,12.87
2017-06-16T07:13:24.789Z,12.80
2017-06-16T07:15:53.085Z,12.10
2017-06-16T07:18:20.617Z,12.20
2017-06-16T07:20:48.210Z,11.83
2017-06-16T07:23:15.746Z,11.50
2017-06-16T07:25:43.319Z,11.10
2017-06-16T07:28:10.894Z,12.00
2017-06-16T07:30:38.430Z,11.17
2017-06-16T07:33:05.961Z,10.70
2017-06-16T07:35:33.539Z,10.90
2017-06-16T07:38:01.834Z,10.63
2017-06-16T07:40:29.388Z,9.07
2017-06-16T07:42:57.737Z,8.90
2017-06-16T07:45:25.270Z,9.53
2017-06-16T07:47:52.819Z,10.47
2017-06-16T07:50:20.650Z,8.87
2017-06-16T07:52:48.206Z,8.53
2017-06-16T07:55:15.778Z,7.97
2017-06-16T07:57:43.397Z,8.67
2017-06-16T08:00:10.921Z,8.60
2017-06-16T08:02:38.448Z,7.57
2017-06-16T08:05:06.009Z,6.60
2017-06-16T08:07:33.537Z,7.30
2017-06-16T08:10:01.068Z,6.90
2017-06-16T08:12:28.653Z,6.80
2017-06-16T08:14:56.172Z,7.60
2017-06-16T08:17:23.687Z,7.13
2017-06-16T08:19:51.260Z,6.83
2017-06-16T08:22:18.825Z,8.10
2017-06-16T08:24:46.441Z,6.10
2017-06-16T08:27:14.076Z,6.93
2017-06-16T08:29:41.645Z,7.13
2017-06-16T08:32:09.173Z,7.40
2017-06-16T08:34:37.516Z,6.13
2017-06-16T08:37:05.049Z,7.70
2017-06-16T08:39:32.595Z,6.67
2017-06-16T08:42:00.174Z,7.03
2017-06-16T08:44:27.704Z,7.50
2017-06-16T08:46:55.249Z,7.20
2017-06-16T08:49:22.830Z,6.97
2017-06-16T08:51:50.354Z,7.97
2017-06-16T08:54:17.906Z,7.97
2017-06-16T08:56:45.488Z,8.20
2017-06-16T08:59:13.036Z,8.40
2017-06-16T09:01:40.561Z,8.17
2017-06-16T09:04:08.144Z,9.63
2017-06-16T09:06:35.672Z,5.90
2017-06-16T09:09:03.225Z,8.67
2017-06-16T09:11:30.811Z,12.03
2017-06-16T09:13:58.348Z,13.47
2017-06-16T09:16:25.907Z,13.50
2017-06-16T09:18:55.358Z,9.83
2017-06-16T09:21:22.891Z,12.00
2017-06-16T09:23:50.425Z,10.90
2017-06-16T09:26:17.989Z,11.77
2017-06-16T09:28:45.523Z,12.43
2017-06-16T09:31:13.058Z,14.20
2017-06-16T09:33:40.644Z,12.07
2017-06-16T09:36:08.186Z,17.43
2017-06-16T09:38:35.720Z,13.23
2017-06-16T09:41:03.312Z,16.17
2017-06-16T09:43:30.863Z,12.37
2017-06-16T09:45:58.414Z,11.20
2017-06-16T09:48:26.261Z,12.60
2017-06-16T09:50:53.793Z,10.30
2017-06-16T09:53:21.318Z,10.73
2017-06-16T09:55:48.895Z,12.20
2017-06-16T09:58:16.462Z,11.10
2017-06-16T10:00:44.763Z,10.40
2017-06-16T10:03:12.365Z,11.17
2017-06-16T10:05:40.690Z,10.73
2017-06-16T10:08:08.234Z,11.77
2017-06-16T10:10:36.586Z,9.87
2017-06-16T10:13:04.111Z,8.87
2017-06-16T10:15:31.633Z,8.90
2017-06-16T10:17:59.977Z,7.70
2017-06-16T10:20:27.516Z,7.23
2017-06-16T10:22:55.053Z,6.80
2017-06-16T10:25:22.612Z,6.60
2017-06-16T10:27:50.143Z,7.60
2017-06-16T10:30:17.701Z,6.87
2017-06-16T10:32:46.078Z,6.80
2017-06-16T10:35:13.638Z,5.87
2017-06-16T10:37:41.169Z,5.83
2017-06-16T10:40:08.744Z,5.80
2017-06-16T10:42:36.276Z,5.63
2017-06-16T10:45:03.806Z,5.30
2017-06-16T10:47:31.386Z,5.47
2017-06-16T10:49:58.909Z,5.00
2017-06-16T10:52:27.197Z,4.80
2017-06-16T10:54:55.528Z,4.83
2017-06-16T10:57:23.062Z,5.77
2017-06-16T10:59:50.586Z,5.67
2017-06-16T11:02:18.169Z,7.00
2017-06-16T11:04:45.699Z,6.53
2017-06-16T11:07:13.235Z,8.10
2017-06-16T11:09:40.819Z,7.47
2017-06-16T11:12:08.360Z,6.63
2017-06-16T11:14:35.900Z,6.67
2017-06-16T11:17:03.495Z,8.13
2017-06-16T11:19:31.015Z,9.30
2017-06-16T11:21:58.577Z,8.77
2017-06-16T11:24:26.183Z,8.47
2017-06-16T11:26:53.720Z,9.07
2017-06-16T11:29:21.241Z,9.00
2017-06-16T11:31:48.833Z,9.07
2017-06-16T11:34:16.360Z,8.53
2017-06-16T11:36:43.890Z,7.57
2017-06-16T11:39:11.469Z,7.47
2017-06-16T11:41:38.984Z,7.93
2017-06-16T11:44:06.506Z,8.40
2017-06-16T11:46:34.069Z,8.33
2017-06-16T11:49:01.630Z,8.03
2017-06-16T11:51:29.160Z,9.00
2017-06-16T11:53:56.738Z,9.20
2017-06-16T11:56:24.288Z,8.70
2017-06-16T11:58:51.820Z,8.90
2017-06-16T12:01:19.388Z,6.20
2017-06-16T12:03:46.904Z,5.73
2017-06-16T12:06:14.435Z,3.93
2017-06-16T12:08:42.003Z,3.70
2017-06-16T12:11:09.517Z,4.37
2017-06-16T12:13:37.053Z,3.57
2017-06-16T12:16:04.629Z,3.57
2017-06-16T12:18:32.156Z,4.13
2017-06-16T12:20:59.691Z,3.80
2017-06-16T12:23:27.282Z,4.30
2017-06-16T12:25:54.818Z,5.23
2017-06-16T12:28:22.341Z,8.00
2017-06-16T12:30:49.917Z,7.60
2017-06-16T12:33:17.453Z,24.37
2017-06-16T12:35:44.973Z,49.50
2017-06-16T12:38:12.687Z,8.60
2017-06-16T12:40:40.994Z,12.37
2017-06-16T12:43:08.525Z,15.83
2017-06-16T12:45:36.093Z,5.87
2017-06-16T12:48:03.620Z,5.13
2017-06-16T12:50:31.165Z,4.00
2017-06-16T12:52:58.739Z,3.90
2017-06-16T12:55:26.273Z,4.97
2017-06-16T12:57:53.792Z,3.67
2017-06-16T13:00:21.355Z,4.47
2017-06-16T13:02:48.886Z,4.30
2017-06-16T13:05:16.407Z,3.50
2017-06-16T13:07:44.013Z,4.47
2017-06-16T13:10:11.535Z,5.10
2017-06-16T13:12:39.062Z,4.97
2017-06-16T13:15:06.670Z,4.50
2017-06-16T13:17:34.207Z,4.67
2017-06-16T13:20:01.738Z,5.43
2017-06-16T13:22:29.300Z,4.50
2017-06-16T13:24:56.849Z,5.13
2017-06-16T13:27:24.410Z,5.37
2017-06-16T13:29:52.011Z,4.60
2017-06-16T13:32:19.540Z,5.60
2017-06-16T13:34:47.092Z,4.47
2017-06-16T13:37:14.957Z,4.73
2017-06-16T13:39:42.484Z,4.03
2017-06-16T13:42:10.020Z,3.90
2017-06-16T13:44:37.606Z,3.60
2017-06-16T13:47:05.135Z,4.30
2017-06-16T13:49:32.659Z,4.13
2017-06-16T13:52:00.271Z,4.37
2017-06-16T13:54:27.799Z,3.70
2017-06-16T13:56:55.336Z,3.40
2017-06-16T13:59:22.905Z,3.70
2017-06-16T14:01:50.440Z,4.10
2017-06-16T14:04:17.969Z,3.70
2017-06-16T14:06:45.555Z,3.13
2017-06-16T14:09:13.112Z,3.90
2017-06-16T14:11:41.536Z,3.50
2017-06-16T14:14:09.889Z,4.73
2017-06-16T14:16:37.437Z,4.20
2017-06-16T14:19:06.408Z,4.23
2017-06-16T14:21:33.987Z,4.10
2017-06-16T14:24:01.540Z,4.33
2017-06-16T14:26:29.073Z,3.67
2017-06-16T14:28:56.674Z,4.17
2017-06-16T14:31:24.214Z,4.07
2017-06-16T14:33:51.762Z,8.20
2017-06-16T14:36:19.759Z,3.73
2017-06-16T14:38:47.941Z,3.60
2017-06-16T14:41:15.577Z,3.60
2017-06-16T14:43:43.184Z,4.20
2017-06-16T14:46:10.734Z,3.57
2017-06-16T14:48:38.504Z,3.60
2017-06-16T14:51:06.084Z,4.43
2017-06-16T14:53:33.603Z,3.60
2017-06-16T14:56:01.142Z,3.57
2017-06-16T14:58:28.728Z,3.73
2017-06-16T15:00:57.121Z,5.13
2017-06-16T15:03:27.488Z,4.43
2017-06-16T15:08:29.106Z,3.70
2017-06-16T15:10:57.950Z,3.80
2017-06-16T15:13:25.628Z,3.10
2017-06-16T15:15:57.970Z,3.00
2017-06-16T15:18:26.306Z,3.83
2017-06-16T15:20:57.310Z,3.03
2017-06-16T15:23:32.514Z,3.10
2017-06-16T15:26:19.006Z,3.47
2017-06-16T15:28:51.898Z,3.10
2017-06-16T15:31:21.913Z,3.10
2017-06-16T15:33:58.448Z,2.87
2017-06-16T15:36:33.646Z,3.13
2017-06-16T15:39:03.220Z,2.77
2017-06-16T15:41:31.163Z,2.83
2017-06-16T15:44:00.982Z,2.77
2017-06-16T15:46:28.943Z,3.20
2017-06-16T15:48:57.538Z,3.50
2017-06-16T15:51:25.073Z,3.90
2017-06-16T15:53:53.246Z,4.37
2017-06-16T15:56:21.576Z,3.53
2017-06-16T15:58:52.236Z,3.30
2017-06-16T16:01:21.618Z,5.30
2017-06-16T16:03:50.585Z,5.30
2017-06-16T16:06:19.866Z,8.40
2017-06-16T16:08:50.550Z,4.90
2017-06-16T16:37:16.226Z,7.00
2017-06-16T16:39:45.506Z,6.53
2017-06-16T16:42:13.644Z,5.20
2017-06-16T16:44:41.230Z,4.97
2017-06-16T16:47:09.809Z,6.03
2017-06-16T16:49:37.443Z,5.40
2017-06-16T16:52:05.117Z,5.40
2017-06-16T16:54:32.786Z,5.33
2017-06-16T16:57:01.121Z,4.40
2017-06-16T16:59:28.829Z,5.17
2017-06-16T17:01:57.819Z,5.93
2017-06-16T17:04:25.433Z,5.60
2017-06-16T17:06:53.117Z,6.07
2017-06-16T17:09:23.634Z,5.33
2017-06-16T17:11:57.342Z,5.43
2017-06-16T17:14:26.310Z,4.53
2017-06-16T17:16:53.858Z,4.73
2017-06-16T17:19:29.545Z,4.23
2017-06-16T17:21:57.846Z,4.17
2017-06-16T17:24:27.177Z,3.77
2017-06-16T17:26:56.990Z,3.53
2017-06-16T17:29:24.684Z,3.20
2017-06-16T17:31:52.288Z,3.00
2017-06-16T17:34:21.511Z,3.17
2017-06-16T17:36:49.340Z,3.03
2017-06-16T17:39:20.440Z,3.07
2017-06-16T17:41:48.255Z,3.37
2017-06-16T17:44:16.584Z,3.80
2017-06-16T17:52:39.483Z,4.60
2017-06-16T17:55:07.045Z,4.43
2017-06-16T17:57:34.600Z,4.80
2017-06-16T18:00:02.237Z,5.13
2017-06-16T18:02:31.123Z,4.13
2017-06-16T18:04:59.459Z,4.83
2017-06-16T18:07:27.049Z,5.30
2017-06-16T18:09:54.574Z,5.00
2017-06-16T18:12:22.146Z,5.37
2017-06-16T18:14:49.762Z,4.87
2017-06-16T18:17:18.076Z,5.90
2017-06-16T18:19:45.625Z,5.13
2017-06-16T18:22:13.207Z,5.10
2017-06-16T18:24:40.750Z,5.73
2017-06-16T18:27:08.309Z,5.37
2017-06-16T18:29:35.898Z,5.33
2017-06-16T18:32:03.461Z,7.87
2017-06-16T18:34:31.006Z,7.03
2017-06-16T18:36:58.617Z,5.43
2017-06-16T18:39:26.177Z,5.77
2017-06-16T18:41:53.741Z,6.70
2017-06-16T18:44:21.344Z,6.17
2017-06-16T18:46:49.279Z,7.97
2017-06-16T18:49:16.836Z,8.40
2017-06-16T18:51:44.423Z,6.73
2017-06-16T18:54:11.990Z,7.63
2017-06-16T18:56:39.549Z,6.73
2017-06-16T18:59:08.055Z,7.60
2017-06-16T19:01:35.610Z,7.43
2017-06-16T19:04:03.157Z,7.60
2017-06-16T19:06:30.767Z,7.90
2017-06-16T19:08:58.387Z,8.53
2017-06-16T19:11:25.927Z,7.50
2017-06-16T19:13:53.526Z,6.93
2017-06-16T19:16:21.076Z,9.53
2017-06-16T19:18:48.630Z,7.33
2017-06-16T19:21:16.224Z,7.53
2017-06-16T19:23:43.777Z,7.70
2017-06-16T19:26:11.347Z,7.00
2017-06-16T19:28:38.998Z,7.10
2017-06-16T19:31:06.532Z,6.30
2017-06-16T19:33:34.134Z,5.80
2017-06-16T19:36:01.743Z,5.97
2017-06-16T19:38:29.298Z,5.30
2017-06-16T19:40:56.860Z,4.67
2017-06-16T19:43:24.439Z,5.20
2017-06-16T19:45:51.983Z,4.87
2017-06-16T19:48:20.632Z,5.87
2017-06-16T19:50:49.022Z,4.37
2017-06-16T19:53:17.364Z,5.00
2017-06-16T19:55:44.955Z,5.53
2017-06-16T19:58:13.325Z,5.33
2017-06-16T20:00:40.897Z,6.17
2017-06-16T20:03:09.202Z,5.43
2017-06-16T20:05:36.794Z,6.40
2017-06-16T20:08:04.337Z,4.50
2017-06-16T20:10:31.885Z,5.20
2017-06-16T20:12:59.535Z,5.43
2017-06-16T20:15:27.166Z,4.87
2017-06-16T20:17:54.701Z,5.20
2017-06-16T20:20:22.296Z,5.10
2017-06-16T20:22:49.824Z,5.37
2017-06-16T20:25:17.399Z,4.57
2017-06-16T20:27:45.017Z,4.77
2017-06-16T20:30:12.580Z,4.60
2017-06-16T20:32:40.107Z,4.60
2017-06-16T20:35:08.456Z,4.40
2017-06-16T20:37:36.008Z,5.07
2017-06-16T20:40:03.565Z,4.37
2017-06-16T20:42:31.152Z,4.00
2017-06-16T20:44:58.707Z,5.20
2017-06-16T20:47:26.252Z,5.27
2017-06-16T20:49:53.830Z,4.73
2017-06-16T20:52:21.353Z,4.60
2017-06-16T20:54:48.874Z,3.77
2017-06-16T20:57:16.479Z,3.70
2017-06-16T20:59:44.027Z,3.73
2017-06-16T21:02:11.566Z,3.80
2017-06-16T21:04:39.150Z,4.57
2017-06-16T21:07:06.682Z,3.83
2017-06-16T21:09:34.998Z,4.93
2017-06-16T21:12:02.590Z,4.80
2017-06-16T21:14:30.130Z,4.73
2017-06-16T21:16:57.683Z,3.67
2017-06-16T21:19:25.264Z,3.50
2017-06-16T21:21:58.456Z,3.23
2017-06-16T21:24:26.045Z,3.73
2017-06-16T21:26:53.622Z,3.87
2017-06-16T21:29:22.013Z,4.93
2017-06-16T21:31:49.590Z,4.80
2017-06-16T21:34:17.122Z,6.83
2017-06-16T21:36:44.662Z,3.97
2017-06-16T21:39:13.013Z,3.57
2017-06-16T21:41:40.560Z,3.40
2017-06-16T21:44:08.106Z,4.10
2017-06-16T21:46:35.676Z,4.43
2017-06-16T21:49:03.233Z,3.80
2017-06-16T21:51:30.782Z,3.07
2017-06-16T21:53:58.359Z,3.77
2017-06-16T21:56:26.016Z,4.20
2017-06-16T21:58:53.541Z,4.97
2017-06-16T22:01:21.122Z,3.77
2017-06-16T22:03:48.661Z,3.53
2017-06-16T22:06:16.950Z,4.10
2017-06-16T22:08:44.529Z,4.77
2017-06-16T22:11:12.082Z,3.53
2017-06-16T22:13:39.602Z,3.50
2017-06-16T22:16:07.201Z,3.80
2017-06-16T22:18:34.743Z,3.83
2017-06-16T22:21:03.032Z,5.53
2017-06-16T22:23:30.610Z,4.23
2017-06-16T22:25:58.147Z,6.33
2017-06-16T22:28:25.698Z,5.27
2017-06-16T22:30:54.044Z,5.00
2017-06-16T22:33:21.568Z,4.67
2017-06-16T22:35:49.080Z,5.80
2017-06-16T22:38:16.663Z,4.20
2017-06-16T22:40:44.202Z,7.70
2017-06-16T22:43:11.740Z,5.33
2017-06-16T22:45:39.314Z,5.80
2017-06-16T22:48:06.858Z,5.47
2017-06-16T22:50:34.382Z,4.80
2017-06-16T22:53:01.965Z,3.53
2017-06-16T22:55:29.522Z,3.90
2017-06-16T22:57:57.101Z,4.57
2017-06-16T23:00:24.664Z,4.80
2017-06-16T23:02:52.191Z,4.77
2017-06-16T23:05:19.722Z,5.07
2017-06-16T23:07:48.067Z,3.50
2017-06-16T23:10:15.624Z,4.20
2017-06-16T23:12:43.154Z,3.63
2017-06-16T23:15:10.749Z,3.33
2017-06-16T23:17:38.275Z,3.27
2017-06-16T23:20:05.808Z,3.33
2017-06-16T23:22:33.397Z,3.60
2017-06-16T23:25:00.917Z,3.43
2017-06-16T23:27:28.442Z,3.73
2017-06-16T23:29:56.009Z,4.20
2017-06-16T23:32:23.537Z,3.87
2017-06-16T23:34:51.078Z,3.50
2017-06-16T23:37:18.649Z,3.97
2017-06-16T23:39:46.175Z,4.23
2017-06-16T23:42:14.461Z,3.03
2017-06-16T23:44:42.065Z,3.87
2017-06-16T23:47:09.580Z,3.80
2017-06-16T23:49:37.876Z,3.20
2017-06-16T23:52:05.467Z,3.00
2017-06-16T23:54:33.017Z,3.00
2017-06-16T23:57:00.554Z,3.30
2017-06-16T23:59:28.156Z,2.60
